createdAt,value
2022-08-22T00:02:19.949Z,2.90
2022-08-22T00:03:09.502Z,2.33
2022-08-22T00:04:56.909Z,2.93
2022-08-22T00:07:32.393Z,2.33
2022-08-22T00:10:03.079Z,2.37
2022-08-22T00:12:34.495Z,2.77
2022-08-22T00:15:05.831Z,3.00
2022-08-22T00:17:40.000Z,2.73
2022-08-22T00:20:10.897Z,2.80
2022-08-22T00:22:42.244Z,2.67
2022-08-22T00:25:26.114Z,2.97
2022-08-22T00:27:56.795Z,3.07
2022-08-22T00:30:25.723Z,2.60
2022-08-22T00:32:58.525Z,2.53
2022-08-22T00:35:29.908Z,2.90
2022-08-22T00:38:03.560Z,2.63
2022-08-22T00:40:37.919Z,2.70
2022-08-22T00:43:15.469Z,2.97
2022-08-22T00:46:07.478Z,2.93
2022-08-22T00:48:59.171Z,3.30
2022-08-22T00:51:51.596Z,2.63
2022-08-22T00:54:22.972Z,3.03
2022-08-22T00:57:01.129Z,2.97
2022-08-22T00:59:44.861Z,2.90
2022-08-22T01:02:21.619Z,2.77
2022-08-22T01:05:00.386Z,2.80
2022-08-22T01:07:43.628Z,3.00
2022-08-22T01:10:25.074Z,2.73
2022-08-22T01:13:05.129Z,3.47
2022-08-22T01:15:36.281Z,3.00
2022-08-22T01:18:25.143Z,2.73
2022-08-22T01:21:20.729Z,2.57
2022-08-22T01:24:16.491Z,2.93
2022-08-22T01:27:10.666Z,2.90
2022-08-22T01:30:02.081Z,2.77
2022-08-22T01:32:45.828Z,2.90
2022-08-22T01:35:26.455Z,2.63
2022-08-22T01:38:01.500Z,3.00
2022-08-22T01:40:53.428Z,2.23
2022-08-22T01:43:55.508Z,2.83
2022-08-22T01:46:26.466Z,3.00
2022-08-22T01:48:57.548Z,2.70
2022-08-22T01:51:28.835Z,2.50
2022-08-22T01:54:02.334Z,2.57
2022-08-22T01:56:35.910Z,2.73
2022-08-22T01:59:10.029Z,2.60
2022-08-22T02:01:46.902Z,2.90
2022-08-22T02:04:17.991Z,2.50
2022-08-22T02:06:52.515Z,3.03
2022-08-22T02:09:28.193Z,3.13
2022-08-22T02:11:57.542Z,2.73
2022-08-22T02:14:30.629Z,2.80
2022-08-22T02:17:01.356Z,3.30
2022-08-22T02:19:34.832Z,3.00
2022-08-22T02:22:06.489Z,2.83
2022-08-22T02:24:43.676Z,2.60
2022-08-22T02:27:17.737Z,2.87
2022-08-22T02:30:00.167Z,2.97
2022-08-22T02:32:30.241Z,2.70
2022-08-22T02:35:03.620Z,3.47
2022-08-22T02:37:37.040Z,3.07
2022-08-22T02:40:09.254Z,3.20
2022-08-22T02:42:40.836Z,3.33
2022-08-22T02:45:17.968Z,3.20
2022-08-22T02:47:51.060Z,3.20
2022-08-22T02:50:21.253Z,3.43
2022-08-22T02:53:01.347Z,2.77
2022-08-22T02:55:34.903Z,3.00
2022-08-22T02:58:06.192Z,3.43
2022-08-22T03:00:44.074Z,2.90
2022-08-22T03:03:18.460Z,3.27
2022-08-22T03:06:01.438Z,3.10
2022-08-22T03:08:32.922Z,3.37
2022-08-22T03:11:05.175Z,3.00
2022-08-22T03:13:39.417Z,3.47
2022-08-22T03:16:12.204Z,3.83
2022-08-22T03:18:45.303Z,4.27
2022-08-22T03:21:17.361Z,3.47
2022-08-22T03:23:48.531Z,3.50
2022-08-22T03:26:19.135Z,3.87
2022-08-22T03:28:59.018Z,3.50
2022-08-22T03:31:29.035Z,3.50
2022-08-22T03:34:16.195Z,3.67
2022-08-22T03:36:47.772Z,3.77
2022-08-22T03:39:20.136Z,3.60
2022-08-22T03:42:05.047Z,3.73
2022-08-22T03:45:00.017Z,3.27
2022-08-22T03:47:44.303Z,3.87
2022-08-22T03:50:17.676Z,3.67
2022-08-22T03:53:18.707Z,3.90
2022-08-22T03:56:02.488Z,3.90
2022-08-22T03:58:44.568Z,3.70
2022-08-22T04:01:26.947Z,3.63
2022-08-22T04:04:10.038Z,4.20
2022-08-22T04:06:53.760Z,4.23
2022-08-22T04:09:48.690Z,4.60
2022-08-22T04:12:25.824Z,4.80
2022-08-22T04:15:11.696Z,5.13
2022-08-22T04:17:57.644Z,4.70
2022-08-22T04:20:44.002Z,4.73
2022-08-22T04:23:27.301Z,4.60
2022-08-22T04:25:59.360Z,4.63
2022-08-22T04:28:30.995Z,4.73
2022-08-22T04:31:02.877Z,4.50
2022-08-22T04:33:35.203Z,4.33
2022-08-22T04:36:04.506Z,4.30
2022-08-22T04:38:35.916Z,4.40
2022-08-22T04:41:06.901Z,4.57
2022-08-22T04:43:37.753Z,4.57
2022-08-22T04:46:09.070Z,4.77
2022-08-22T04:48:42.391Z,5.17
2022-08-22T04:51:13.736Z,4.87
2022-08-22T04:54:05.878Z,4.73
2022-08-22T04:56:39.614Z,5.53
2022-08-22T04:59:10.714Z,4.93
2022-08-22T05:01:40.551Z,5.03
2022-08-22T05:04:12.630Z,4.90
2022-08-22T05:06:45.000Z,4.83
2022-08-22T05:09:16.441Z,4.50
2022-08-22T05:11:46.815Z,4.30
2022-08-22T05:14:17.779Z,4.80
2022-08-22T05:16:47.479Z,4.80
2022-08-22T05:19:27.086Z,5.73
2022-08-22T05:21:58.755Z,4.70
2022-08-22T05:24:30.484Z,4.40
2022-08-22T05:27:00.321Z,4.80
2022-08-22T05:29:30.743Z,4.57
2022-08-22T05:32:01.390Z,4.30
2022-08-22T05:34:34.073Z,4.43
2022-08-22T05:37:08.088Z,4.93
2022-08-22T05:39:38.585Z,5.13
2022-08-22T05:42:07.415Z,4.93
2022-08-22T05:44:38.606Z,5.30
2022-08-22T05:47:14.529Z,4.27
2022-08-22T05:49:49.800Z,4.47
2022-08-22T05:52:34.819Z,4.83
2022-08-22T05:55:05.145Z,4.50
2022-08-22T05:57:35.254Z,4.60
2022-08-22T06:00:05.232Z,4.43
2022-08-22T06:02:45.192Z,4.20
2022-08-22T06:05:14.747Z,4.00
2022-08-22T06:07:44.943Z,4.30
2022-08-22T06:10:22.922Z,4.33
2022-08-22T06:12:56.323Z,4.77
2022-08-22T06:15:29.768Z,3.73
2022-08-22T06:17:59.542Z,3.60
2022-08-22T06:20:33.103Z,2.80
2022-08-22T06:23:02.786Z,3.10
2022-08-22T06:25:33.424Z,3.20
2022-08-22T06:28:04.359Z,3.00
2022-08-22T06:30:32.883Z,3.37
2022-08-22T06:33:03.153Z,3.70
2022-08-22T06:35:55.673Z,3.27
2022-08-22T06:38:26.305Z,3.60
2022-08-22T06:40:55.776Z,3.40
2022-08-22T06:43:24.767Z,3.50
2022-08-22T06:45:53.903Z,3.50
2022-08-22T06:48:24.501Z,3.83
2022-08-22T06:50:58.497Z,4.33
2022-08-22T06:53:28.572Z,4.30
2022-08-22T06:55:59.182Z,4.30
2022-08-22T06:58:32.326Z,5.00
2022-08-22T07:01:11.955Z,3.87
2022-08-22T07:03:42.944Z,4.10
2022-08-22T07:06:16.158Z,4.30
2022-08-22T07:08:44.929Z,5.13
2022-08-22T07:11:16.711Z,5.27
2022-08-22T07:13:46.685Z,4.60
2022-08-22T07:16:14.907Z,5.93
2022-08-22T07:18:48.364Z,5.13
2022-08-22T07:21:26.708Z,5.37
2022-08-22T07:23:55.564Z,5.47
2022-08-22T07:26:29.021Z,5.27
2022-08-22T07:28:58.503Z,5.67
2022-08-22T07:31:37.089Z,6.03
2022-08-22T07:34:23.540Z,5.30
2022-08-22T07:37:00.007Z,5.30
2022-08-22T07:39:32.451Z,6.20
2022-08-22T07:42:06.924Z,5.47
2022-08-22T07:44:38.454Z,5.43
2022-08-22T07:47:09.720Z,5.17
2022-08-22T07:49:40.414Z,5.20
2022-08-22T07:52:19.750Z,4.97
2022-08-22T07:54:50.196Z,5.00
2022-08-22T07:57:22.889Z,5.27
2022-08-22T07:59:52.961Z,5.03
2022-08-22T08:02:21.958Z,4.23
2022-08-22T08:04:50.944Z,5.33
2022-08-22T08:07:22.655Z,4.70
2022-08-22T08:09:52.289Z,4.73
2022-08-22T08:12:21.935Z,5.37
2022-08-22T08:14:53.835Z,4.87
2022-08-22T08:17:23.905Z,5.17
2022-08-22T08:19:54.471Z,5.30
2022-08-22T08:22:27.177Z,5.20
2022-08-22T08:24:57.697Z,4.73
2022-08-22T08:27:45.217Z,5.57
2022-08-22T08:30:19.650Z,5.00
2022-08-22T08:32:49.969Z,4.80
2022-08-22T08:35:21.028Z,4.70
2022-08-22T08:37:52.243Z,4.90
2022-08-22T08:40:27.137Z,4.77
2022-08-22T08:43:23.013Z,4.00
2022-08-22T08:46:14.229Z,5.73
2022-08-22T08:48:57.320Z,5.30
2022-08-22T08:51:32.259Z,4.80
2022-08-22T08:54:11.511Z,5.40
2022-08-22T08:56:47.188Z,4.70
2022-08-22T08:59:25.491Z,4.57
2022-08-22T09:02:09.500Z,4.17
2022-08-22T09:05:01.201Z,4.63
2022-08-22T09:07:44.448Z,4.07
2022-08-22T09:10:36.807Z,3.73
2022-08-22T09:13:25.171Z,3.20
2022-08-22T09:16:12.537Z,4.20
2022-08-22T09:18:49.759Z,3.97
2022-08-22T09:21:31.500Z,3.27
2022-08-22T09:24:12.124Z,3.33
2022-08-22T09:26:48.046Z,3.83
2022-08-22T09:29:31.100Z,3.87
2022-08-22T09:32:07.056Z,3.27
2022-08-22T09:34:49.303Z,3.37
2022-08-22T09:37:20.940Z,3.83
2022-08-22T09:39:53.994Z,4.13
2022-08-22T09:42:31.277Z,3.30
2022-08-22T09:45:22.475Z,3.37
2022-08-22T09:47:53.153Z,3.50
2022-08-22T09:50:33.228Z,3.47
2022-08-22T09:53:08.081Z,3.23
2022-08-22T09:55:42.477Z,3.23
2022-08-22T09:58:23.436Z,2.83
2022-08-22T10:00:56.520Z,2.80
2022-08-22T10:03:33.951Z,2.70
2022-08-22T10:06:05.462Z,2.40
2022-08-22T10:08:38.641Z,2.67
2022-08-22T10:11:28.897Z,2.07
2022-08-22T10:14:00.685Z,2.80
2022-08-22T10:16:44.205Z,2.70
2022-08-22T10:19:28.180Z,2.27
2022-08-22T10:22:15.211Z,2.77
2022-08-22T10:24:47.956Z,2.50
2022-08-22T10:27:18.733Z,2.60
2022-08-22T10:29:54.523Z,2.70
2022-08-22T10:32:30.741Z,2.73
2022-08-22T10:35:03.083Z,2.53
2022-08-22T10:37:37.554Z,2.43
2022-08-22T10:40:12.366Z,2.40
2022-08-22T10:42:43.025Z,2.37
2022-08-22T10:45:23.707Z,2.37
2022-08-22T10:48:21.066Z,2.30
2022-08-22T10:50:53.756Z,2.30
2022-08-22T10:53:34.757Z,2.27
2022-08-22T10:56:10.742Z,2.17
2022-08-22T10:58:41.935Z,2.27
2022-08-22T11:01:37.617Z,2.40
2022-08-22T11:04:12.088Z,2.80
2022-08-22T11:06:44.821Z,2.63
2022-08-22T11:09:20.325Z,2.10
2022-08-22T11:11:51.367Z,2.03
2022-08-22T11:14:26.756Z,2.60
2022-08-22T11:16:59.057Z,2.17
2022-08-22T11:19:44.948Z,2.03
2022-08-22T11:22:23.178Z,2.10
2022-08-22T11:25:06.081Z,2.27
2022-08-22T11:27:39.889Z,2.30
2022-08-22T11:30:18.335Z,1.77
2022-08-22T11:33:03.525Z,2.60
2022-08-22T11:35:35.892Z,2.50
2022-08-22T11:38:12.534Z,2.00
2022-08-22T11:40:43.963Z,2.30
2022-08-22T11:43:23.275Z,2.07
2022-08-22T11:45:53.413Z,2.30
2022-08-22T11:48:26.072Z,2.33
2022-08-22T11:50:57.011Z,2.77
2022-08-22T11:53:29.589Z,2.40
2022-08-22T11:56:05.310Z,2.10
2022-08-22T11:58:41.747Z,2.67
2022-08-22T12:01:17.317Z,2.57
2022-08-22T12:03:58.392Z,2.20
2022-08-22T12:06:44.818Z,2.23
2022-08-22T12:09:20.568Z,2.30
2022-08-22T12:11:59.294Z,2.43
2022-08-22T12:14:30.408Z,2.50
2022-08-22T12:17:05.769Z,2.10
2022-08-22T12:19:42.088Z,2.23
2022-08-22T12:22:41.531Z,2.27
2022-08-22T12:25:24.409Z,2.80
2022-08-22T12:27:56.349Z,2.50
2022-08-22T12:30:30.262Z,2.57
2022-08-22T12:33:17.294Z,2.40
2022-08-22T12:36:04.880Z,2.60
2022-08-22T12:38:44.428Z,2.07
2022-08-22T12:41:39.082Z,2.40
2022-08-22T12:44:24.959Z,1.83
2022-08-22T12:47:01.978Z,2.13
2022-08-22T12:49:39.953Z,2.47
2022-08-22T12:52:19.892Z,2.30
2022-08-22T12:54:58.802Z,2.60
2022-08-22T12:57:34.725Z,2.67
2022-08-22T13:00:23.057Z,2.33
2022-08-22T13:02:55.702Z,2.60
2022-08-22T13:05:25.361Z,2.60
2022-08-22T13:07:58.420Z,2.50
2022-08-22T13:10:35.497Z,2.30
2022-08-22T13:13:12.486Z,2.53
2022-08-22T13:15:44.105Z,2.03
2022-08-22T13:18:29.404Z,2.37
2022-08-22T13:20:59.856Z,2.70
2022-08-22T13:23:31.144Z,2.90
2022-08-22T13:26:07.462Z,2.50
2022-08-22T13:28:42.532Z,2.37
2022-08-22T13:31:11.361Z,2.60
2022-08-22T13:33:47.013Z,3.03
2022-08-22T13:36:17.142Z,2.37
2022-08-22T13:38:49.016Z,2.80
2022-08-22T13:41:23.414Z,2.80
2022-08-22T13:44:12.594Z,3.03
2022-08-22T13:47:04.160Z,2.30
2022-08-22T13:49:36.992Z,2.30
2022-08-22T13:52:14.473Z,2.53
2022-08-22T13:55:00.179Z,2.17
2022-08-22T13:57:30.318Z,2.40
2022-08-22T14:00:06.608Z,2.10
2022-08-22T14:02:43.497Z,2.80
2022-08-22T14:05:14.033Z,2.67
2022-08-22T14:07:48.778Z,2.40
2022-08-22T14:10:23.607Z,2.30
2022-08-22T14:13:08.216Z,3.00
2022-08-22T14:15:45.300Z,2.60
2022-08-22T14:18:18.702Z,2.67
2022-08-22T14:20:48.332Z,2.67
2022-08-22T14:23:20.093Z,2.73
2022-08-22T14:25:52.328Z,2.50
2022-08-22T14:28:23.232Z,2.20
2022-08-22T14:31:00.809Z,2.43
2022-08-22T14:33:35.464Z,3.17
2022-08-22T14:36:06.484Z,2.17
2022-08-22T14:38:40.284Z,2.63
2022-08-22T14:41:23.510Z,2.60
2022-08-22T14:43:54.445Z,2.60
2022-08-22T14:46:26.636Z,2.50
2022-08-22T14:49:08.516Z,2.00
2022-08-22T14:51:40.449Z,2.60
2022-08-22T14:54:14.154Z,2.57
2022-08-22T14:56:49.940Z,2.13
2022-08-22T14:59:32.756Z,2.10
2022-08-22T15:02:03.768Z,2.43
2022-08-22T15:04:35.980Z,2.17
2022-08-22T15:07:10.513Z,2.30
2022-08-22T15:09:41.597Z,2.77
2022-08-22T15:12:25.476Z,2.20
2022-08-22T15:14:56.241Z,2.30
2022-08-22T15:17:36.340Z,2.93
2022-08-22T15:20:11.891Z,2.40
2022-08-22T15:22:41.418Z,2.37
2022-08-22T15:25:15.800Z,2.10
2022-08-22T15:27:49.405Z,2.30
2022-08-22T15:30:21.064Z,2.07
2022-08-22T15:32:50.069Z,2.40
2022-08-22T15:35:30.945Z,2.40
2022-08-22T15:38:00.050Z,2.40
2022-08-22T15:40:31.937Z,2.40
2022-08-22T15:43:12.856Z,2.57
2022-08-22T15:45:43.894Z,2.50
2022-08-22T15:48:14.265Z,2.80
2022-08-22T15:50:58.331Z,2.37
2022-08-22T15:53:28.469Z,2.63
2022-08-22T15:56:28.823Z,2.57
2022-08-22T15:59:15.556Z,2.50
2022-08-22T16:01:51.266Z,2.27
2022-08-22T16:04:32.064Z,2.53
2022-08-22T16:07:02.983Z,2.33
2022-08-22T16:09:40.388Z,2.60
2022-08-22T16:12:12.402Z,2.67
2022-08-22T16:14:50.938Z,2.20
2022-08-22T16:17:37.841Z,2.53
2022-08-22T16:20:24.747Z,2.67
2022-08-22T16:23:08.772Z,2.60
2022-08-22T16:25:55.734Z,2.23
2022-08-22T16:28:56.273Z,3.33
2022-08-22T16:31:19.268Z,2.57
2022-08-22T16:33:48.225Z,2.70
2022-08-22T16:36:17.329Z,2.37
2022-08-22T16:38:46.622Z,5.23
2022-08-22T16:41:32.301Z,9.90
2022-08-22T16:44:21.182Z,16.27
2022-08-22T16:46:50.332Z,3.60
2022-08-22T16:49:26.491Z,3.33
2022-08-22T16:52:13.186Z,3.07
2022-08-22T16:54:45.412Z,2.37
2022-08-22T16:57:20.196Z,7.00
2022-08-22T17:00:07.457Z,3.10
2022-08-22T17:02:46.903Z,3.23
2022-08-22T17:05:32.824Z,2.73
2022-08-22T17:08:15.695Z,2.17
2022-08-22T17:10:49.194Z,2.30
2022-08-22T17:13:26.375Z,2.90
2022-08-22T17:16:07.002Z,2.53
2022-08-22T17:18:54.977Z,2.40
2022-08-22T17:21:26.531Z,2.83
2022-08-22T17:24:00.208Z,2.40
2022-08-22T17:26:34.900Z,2.67
2022-08-22T17:29:08.084Z,2.40
2022-08-22T17:31:37.873Z,2.30
2022-08-22T17:34:15.423Z,2.23
2022-08-22T17:36:52.319Z,2.40
2022-08-22T17:39:29.121Z,2.07
2022-08-22T17:42:01.640Z,2.23
2022-08-22T17:44:33.764Z,2.27
2022-08-22T17:47:03.817Z,2.80
2022-08-22T17:49:48.440Z,2.40
2022-08-22T17:52:22.114Z,2.27
2022-08-22T17:54:55.124Z,2.23
2022-08-22T17:57:26.894Z,2.40
2022-08-22T17:59:58.128Z,2.53
2022-08-22T18:02:28.632Z,2.37
2022-08-22T18:05:03.431Z,2.60
2022-08-22T18:07:35.056Z,2.40
2022-08-22T18:10:06.953Z,2.23
2022-08-22T18:12:40.548Z,2.60
2022-08-22T18:15:10.548Z,2.60
2022-08-22T18:17:41.381Z,2.27
2022-08-22T18:20:13.131Z,2.50
2022-08-22T18:22:44.905Z,2.50
2022-08-22T18:25:27.944Z,2.40
2022-08-22T18:27:58.655Z,2.43
2022-08-22T18:30:29.421Z,2.77
2022-08-22T18:33:00.466Z,2.47
2022-08-22T18:35:33.507Z,2.40
2022-08-22T18:38:19.576Z,2.27
2022-08-22T18:40:51.577Z,2.77
2022-08-22T18:43:23.871Z,2.93
2022-08-22T18:46:00.163Z,3.10
2022-08-22T18:48:33.273Z,3.17
2022-08-22T18:51:24.328Z,2.30
2022-08-22T18:53:54.634Z,2.60
2022-08-22T18:56:47.714Z,3.03
2022-08-22T18:59:26.123Z,2.53
2022-08-22T19:02:02.488Z,2.70
2022-08-22T19:04:47.212Z,3.13
2022-08-22T19:07:25.561Z,2.93
2022-08-22T19:10:08.660Z,2.97
2022-08-22T19:12:58.365Z,3.40
2022-08-22T19:15:33.791Z,3.30
2022-08-22T19:18:09.350Z,3.20
2022-08-22T19:20:56.560Z,3.33
2022-08-22T19:23:49.273Z,2.60
2022-08-22T19:26:28.760Z,3.00
2022-08-22T19:28:59.668Z,2.73
2022-08-22T19:31:44.294Z,2.77
2022-08-22T19:34:17.699Z,2.67
2022-08-22T19:36:46.570Z,3.13
2022-08-22T19:39:43.094Z,3.10
2022-08-22T19:42:15.035Z,2.40
2022-08-22T19:44:44.659Z,2.67
2022-08-22T19:47:30.807Z,3.10
2022-08-22T19:50:01.569Z,2.80
2022-08-22T19:52:48.596Z,2.60
2022-08-22T19:55:22.880Z,2.80
2022-08-22T19:57:58.474Z,3.00
2022-08-22T20:00:41.566Z,3.00
2022-08-22T20:03:13.020Z,2.87
2022-08-22T20:05:57.137Z,3.17
2022-08-22T20:08:41.631Z,2.80
2022-08-22T20:11:20.203Z,3.17
2022-08-22T20:13:48.654Z,3.23
2022-08-22T20:16:18.908Z,3.40
2022-08-22T20:19:06.137Z,2.73
2022-08-22T20:21:40.088Z,3.17
2022-08-22T20:24:09.456Z,3.13
2022-08-22T20:26:52.196Z,3.10
2022-08-22T20:29:30.859Z,2.77
2022-08-22T20:31:59.376Z,3.13
2022-08-22T20:34:28.889Z,3.40
2022-08-22T20:37:23.313Z,3.33
2022-08-22T20:39:58.790Z,3.00
2022-08-22T20:42:29.979Z,3.10
2022-08-22T20:44:59.740Z,2.90
2022-08-22T20:47:36.174Z,3.23
2022-08-22T20:50:12.446Z,3.00
2022-08-22T20:52:51.814Z,3.50
2022-08-22T20:55:25.974Z,3.47
2022-08-22T20:58:02.428Z,3.17
2022-08-22T21:00:33.474Z,3.33
2022-08-22T21:03:03.251Z,3.50
2022-08-22T21:05:34.540Z,3.33
2022-08-22T21:08:05.052Z,3.10
2022-08-22T21:10:51.379Z,3.37
2022-08-22T21:13:22.171Z,3.17
2022-08-22T21:15:51.517Z,3.00
2022-08-22T21:18:27.382Z,3.07
2022-08-22T21:20:56.141Z,3.30
2022-08-22T21:23:24.352Z,3.03
2022-08-22T21:25:56.491Z,3.03
2022-08-22T21:28:34.051Z,3.30
2022-08-22T21:31:08.653Z,3.17
2022-08-22T21:33:36.945Z,3.10
2022-08-22T21:36:05.382Z,2.83
2022-08-22T21:38:33.898Z,2.83
2022-08-22T21:41:04.548Z,3.03
2022-08-22T21:43:36.732Z,2.90
2022-08-22T21:46:05.453Z,2.97
2022-08-22T21:48:38.717Z,3.10
2022-08-22T21:51:23.988Z,3.00
2022-08-22T21:53:56.078Z,2.70
2022-08-22T21:56:40.585Z,3.00
2022-08-22T21:59:24.862Z,2.93
2022-08-22T22:01:53.527Z,3.00
2022-08-22T22:04:23.895Z,2.90
2022-08-22T22:06:52.109Z,3.30
2022-08-22T22:09:20.332Z,3.00
2022-08-22T22:11:48.525Z,2.87
2022-08-22T22:14:16.756Z,2.97
2022-08-22T22:16:46.322Z,3.47
2022-08-22T22:19:14.875Z,2.73
2022-08-22T22:21:43.333Z,3.23
2022-08-22T22:24:11.575Z,3.10
2022-08-22T22:26:39.893Z,3.30
2022-08-22T22:29:09.557Z,2.80
2022-08-22T22:31:38.669Z,2.97
2022-08-22T22:34:08.232Z,2.70
2022-08-22T22:36:36.588Z,3.10
2022-08-22T22:39:06.143Z,2.70
2022-08-22T22:41:34.377Z,3.07
2022-08-22T22:44:02.671Z,3.07
2022-08-22T22:46:30.993Z,2.90
2022-08-22T22:48:59.557Z,3.20
2022-08-22T22:51:29.129Z,3.00
2022-08-22T22:53:57.462Z,3.30
2022-08-22T22:56:26.255Z,3.30
2022-08-22T22:59:00.597Z,3.23
2022-08-22T23:01:40.973Z,3.10
2022-08-22T23:04:09.275Z,3.10
2022-08-22T23:06:38.863Z,3.17
2022-08-22T23:09:07.076Z,3.40
2022-08-22T23:11:35.643Z,3.90
2022-08-22T23:14:03.927Z,3.17
2022-08-22T23:16:37.169Z,2.83
2022-08-22T23:19:09.334Z,2.77
2022-08-22T23:21:38.966Z,2.80
2022-08-22T23:24:07.841Z,2.87
2022-08-22T23:26:36.195Z,3.00
2022-08-22T23:29:05.161Z,3.10
2022-08-22T23:31:34.650Z,3.20
2022-08-22T23:34:04.456Z,3.17
2022-08-22T23:36:32.634Z,3.03
2022-08-22T23:39:02.261Z,2.90
2022-08-22T23:41:30.473Z,3.83
2022-08-22T23:43:58.715Z,2.87
2022-08-22T23:46:28.152Z,3.37
2022-08-22T23:48:59.531Z,3.50
2022-08-22T23:51:28.163Z,3.30
2022-08-22T23:53:57.047Z,3.53
2022-08-22T23:56:29.911Z,3.47
2022-08-22T23:58:59.017Z,3.10
